createdAt,value
2023-02-08T00:00:49.372Z,6.30
2023-02-08T00:03:16.554Z,7.67
2023-02-08T00:05:43.182Z,6.53
2023-02-08T00:08:10.002Z,7.27
2023-02-08T00:10:36.621Z,6.50
2023-02-08T00:13:03.724Z,7.40
2023-02-08T00:15:30.396Z,7.07
2023-02-08T00:17:57.101Z,6.83
2023-02-08T00:20:26.661Z,7.37
2023-02-08T00:22:53.551Z,7.37
2023-02-08T00:25:20.272Z,7.30
2023-02-08T00:27:47.020Z,6.63
2023-02-08T00:30:13.754Z,7.40
2023-02-08T00:32:40.345Z,6.90
2023-02-08T00:35:07.448Z,6.43
2023-02-08T00:37:34.228Z,7.17
2023-02-08T00:40:02.523Z,7.07
2023-02-08T00:42:30.238Z,6.53
2023-02-08T00:44:57.162Z,6.87
2023-02-08T00:47:24.678Z,6.53
2023-02-08T00:49:51.576Z,7.10
2023-02-08T00:52:18.535Z,7.30
2023-02-08T00:54:45.220Z,7.17
2023-02-08T00:57:11.830Z,6.63
2023-02-08T00:59:38.525Z,7.07
2023-02-08T01:02:05.309Z,6.63
2023-02-08T01:04:32.011Z,6.90
2023-02-08T01:06:58.764Z,6.70
2023-02-08T01:09:25.588Z,7.13
2023-02-08T01:11:52.255Z,6.03
2023-02-08T01:14:18.902Z,5.87
2023-02-08T01:16:45.564Z,6.20
2023-02-08T01:19:13.386Z,6.27
2023-02-08T01:21:41.618Z,6.50
2023-02-08T01:24:08.623Z,6.03
2023-02-08T01:26:35.312Z,5.80
2023-02-08T01:29:04.004Z,5.87
2023-02-08T01:31:33.388Z,5.93
2023-02-08T01:34:00.916Z,5.30
2023-02-08T01:36:29.286Z,6.50
2023-02-08T01:38:56.291Z,6.13
2023-02-08T01:41:28.199Z,6.23
2023-02-08T01:44:19.286Z,5.90
2023-02-08T01:46:51.573Z,5.67
2023-02-08T01:49:28.006Z,5.77
2023-02-08T01:52:09.293Z,5.97
2023-02-08T01:54:40.499Z,5.63
2023-02-08T01:57:07.880Z,5.87
2023-02-08T01:59:50.033Z,5.77
2023-02-08T02:02:19.159Z,5.93
2023-02-08T02:04:48.758Z,5.30
2023-02-08T02:07:17.164Z,5.63
2023-02-08T02:09:59.870Z,5.50
2023-02-08T02:12:27.259Z,5.60
2023-02-08T02:14:53.946Z,5.10
2023-02-08T02:17:20.737Z,5.60
2023-02-08T02:20:11.612Z,5.67
2023-02-08T02:23:10.920Z,5.33
2023-02-08T02:26:00.235Z,5.10
2023-02-08T02:28:52.889Z,5.80
2023-02-08T02:31:59.257Z,5.43
2023-02-08T02:34:57.426Z,5.10
2023-02-08T02:37:47.671Z,4.90
2023-02-08T02:40:34.160Z,4.77
2023-02-08T02:43:38.529Z,5.40
2023-02-08T02:46:11.123Z,5.50
2023-02-08T02:48:58.947Z,5.37
2023-02-08T02:51:35.018Z,5.17
2023-02-08T02:54:22.966Z,5.13
2023-02-08T02:56:55.752Z,5.37
2023-02-08T02:59:23.024Z,4.80
2023-02-08T03:01:49.606Z,5.27
2023-02-08T03:04:19.206Z,5.30
2023-02-08T03:07:01.938Z,4.93
2023-02-08T03:09:40.634Z,5.57
2023-02-08T03:12:32.497Z,4.53
2023-02-08T03:15:11.813Z,5.07
2023-02-08T03:18:04.467Z,4.37
2023-02-08T03:20:47.320Z,4.93
2023-02-08T03:23:31.157Z,4.73
2023-02-08T03:26:16.093Z,4.63
2023-02-08T03:28:56.983Z,5.20
2023-02-08T03:31:32.955Z,4.87
2023-02-08T03:34:08.549Z,6.13
2023-02-08T03:36:44.486Z,5.53
2023-02-08T03:39:15.618Z,4.80
2023-02-08T03:41:46.335Z,5.63
2023-02-08T03:44:19.455Z,5.20
2023-02-08T03:46:54.668Z,5.50
2023-02-08T03:49:25.779Z,6.00
2023-02-08T03:51:54.343Z,5.93
2023-02-08T03:54:26.076Z,5.87
2023-02-08T03:56:59.510Z,5.90
2023-02-08T03:59:32.730Z,5.40
2023-02-08T04:02:06.226Z,5.87
2023-02-08T04:04:35.742Z,5.57
2023-02-08T04:07:02.725Z,5.50
2023-02-08T04:09:29.365Z,4.90
2023-02-08T04:11:56.092Z,6.00
2023-02-08T04:14:22.900Z,4.90
2023-02-08T04:16:49.639Z,5.30
2023-02-08T04:19:16.275Z,5.20
2023-02-08T04:21:42.911Z,5.67
2023-02-08T04:24:09.695Z,6.10
2023-02-08T04:26:36.373Z,6.10
2023-02-08T04:29:03.643Z,5.40
2023-02-08T04:31:30.527Z,5.20
2023-02-08T04:33:57.183Z,5.57
2023-02-08T04:36:23.959Z,6.03
2023-02-08T04:38:50.578Z,6.13
2023-02-08T04:41:17.335Z,5.77
2023-02-08T04:43:44.007Z,5.70
2023-02-08T04:46:11.184Z,6.13
2023-02-08T04:48:38.000Z,6.20
2023-02-08T04:51:04.756Z,5.50
2023-02-08T04:53:31.343Z,5.30
2023-02-08T04:55:58.074Z,5.97
2023-02-08T04:58:24.731Z,5.37
2023-02-08T05:00:51.377Z,5.30
2023-02-08T05:03:18.254Z,4.87
2023-02-08T05:05:45.052Z,5.10
2023-02-08T05:08:11.737Z,4.80
2023-02-08T05:10:43.573Z,4.90
2023-02-08T05:13:10.223Z,4.47
2023-02-08T05:15:37.081Z,4.20
2023-02-08T05:18:03.775Z,4.47
2023-02-08T05:20:30.664Z,4.43
2023-02-08T05:22:57.305Z,4.60
2023-02-08T05:25:23.936Z,4.13
2023-02-08T05:27:50.690Z,4.23
2023-02-08T05:30:17.395Z,4.60
2023-02-08T05:32:44.085Z,5.07
2023-02-08T05:35:10.704Z,5.30
2023-02-08T05:37:37.317Z,4.67
2023-02-08T05:40:04.132Z,5.07
2023-02-08T05:42:30.831Z,5.43
2023-02-08T05:44:57.510Z,5.53
2023-02-08T05:47:24.164Z,5.37
2023-02-08T05:49:50.800Z,5.37
2023-02-08T05:52:17.408Z,4.93
2023-02-08T05:54:44.092Z,5.20
2023-02-08T05:57:10.736Z,5.30
2023-02-08T05:59:37.363Z,5.20
2023-02-08T06:02:04.014Z,4.93
2023-02-08T06:04:30.677Z,5.73
2023-02-08T06:06:57.288Z,4.50
2023-02-08T06:09:23.968Z,5.03
2023-02-08T06:11:50.635Z,4.70
2023-02-08T06:14:17.301Z,4.90
2023-02-08T06:16:44.200Z,4.80
2023-02-08T06:19:10.858Z,4.80
2023-02-08T06:21:37.442Z,5.40
2023-02-08T06:24:06.676Z,5.50
2023-02-08T06:26:34.253Z,5.77
2023-02-08T06:29:00.907Z,5.40
2023-02-08T06:31:27.633Z,5.00
2023-02-08T06:33:54.312Z,5.30
2023-02-08T06:36:20.952Z,5.13
2023-02-08T06:38:47.880Z,5.40
2023-02-08T06:41:15.275Z,5.57
2023-02-08T06:43:41.887Z,6.37
2023-02-08T06:46:08.734Z,5.60
2023-02-08T06:48:36.398Z,5.70
2023-02-08T06:51:03.709Z,6.33
2023-02-08T06:53:30.783Z,5.73
2023-02-08T06:55:57.484Z,5.63
2023-02-08T06:58:24.085Z,6.30
2023-02-08T07:00:50.866Z,5.40
2023-02-08T07:03:17.708Z,5.53
2023-02-08T07:05:58.686Z,5.83
2023-02-08T07:08:31.407Z,5.23
2023-02-08T07:10:58.010Z,5.63
2023-02-08T07:13:24.644Z,6.13
2023-02-08T07:15:51.246Z,5.97
2023-02-08T07:18:18.173Z,6.03
2023-02-08T07:20:44.816Z,5.27
2023-02-08T07:23:11.480Z,5.40
2023-02-08T07:25:38.124Z,5.60
2023-02-08T07:28:04.968Z,5.30
2023-02-08T07:30:31.691Z,5.20
2023-02-08T07:32:58.996Z,5.03
2023-02-08T07:35:25.694Z,5.00
2023-02-08T07:37:52.477Z,4.57
2023-02-08T07:40:19.254Z,5.03
2023-02-08T07:42:46.057Z,5.00
2023-02-08T07:45:29.068Z,4.57
2023-02-08T07:47:55.745Z,5.30
2023-02-08T07:50:22.450Z,5.23
2023-02-08T07:52:49.120Z,5.37
2023-02-08T07:55:17.112Z,5.00
2023-02-08T07:57:44.628Z,5.10
2023-02-08T08:00:12.447Z,5.33
2023-02-08T08:02:39.455Z,5.20
2023-02-08T08:05:06.841Z,5.33
2023-02-08T08:07:33.619Z,5.13
2023-02-08T08:10:00.334Z,4.97
2023-02-08T08:12:26.998Z,5.23
2023-02-08T08:14:53.671Z,5.27
2023-02-08T08:17:20.326Z,5.20
2023-02-08T08:19:47.208Z,5.00
2023-02-08T08:22:13.778Z,5.93
2023-02-08T08:24:40.418Z,4.80
2023-02-08T08:27:07.652Z,5.87
2023-02-08T08:29:36.130Z,5.17
2023-02-08T08:32:04.167Z,5.43
2023-02-08T08:34:31.800Z,5.50
2023-02-08T08:37:02.821Z,5.37
2023-02-08T08:39:29.527Z,5.30
2023-02-08T08:42:00.717Z,5.40
2023-02-08T08:44:27.343Z,4.97
2023-02-08T08:46:58.116Z,5.03
2023-02-08T08:49:25.864Z,5.27
2023-02-08T08:51:52.566Z,5.00
2023-02-08T08:54:19.648Z,4.83
2023-02-08T08:56:46.306Z,5.10
2023-02-08T08:59:13.171Z,5.03
2023-02-08T09:01:42.193Z,5.70
2023-02-08T09:04:10.190Z,5.10
2023-02-08T09:06:37.220Z,5.40
2023-02-08T09:09:04.247Z,5.03
2023-02-08T09:11:33.089Z,5.23
2023-02-08T09:14:04.274Z,4.60
2023-02-08T09:16:32.082Z,4.77
2023-02-08T09:19:06.185Z,4.77
2023-02-08T09:21:33.811Z,4.30
2023-02-08T09:24:04.235Z,4.87
2023-02-08T09:26:30.928Z,3.97
2023-02-08T09:28:57.560Z,4.30
2023-02-08T09:31:26.972Z,4.53
2023-02-08T09:33:56.551Z,4.33
2023-02-08T09:36:25.488Z,4.80
2023-02-08T09:39:00.170Z,5.37
2023-02-08T09:41:35.918Z,5.27
2023-02-08T09:44:41.119Z,5.20
2023-02-08T09:47:28.677Z,5.13
2023-02-08T09:50:17.468Z,5.07
2023-02-08T09:52:50.599Z,5.50
2023-02-08T09:55:36.689Z,5.60
2023-02-08T09:58:13.949Z,5.20
2023-02-08T10:00:44.258Z,5.00
2023-02-08T10:03:42.419Z,5.73
2023-02-08T10:06:12.972Z,5.57
2023-02-08T10:08:40.692Z,5.03
2023-02-08T10:11:25.985Z,5.43
2023-02-08T10:14:21.002Z,5.77
2023-02-08T10:16:53.559Z,5.30
2023-02-08T10:19:42.037Z,5.43
2023-02-08T10:22:34.635Z,4.97
2023-02-08T10:25:27.817Z,5.30
2023-02-08T10:28:11.126Z,5.53
2023-02-08T10:31:00.490Z,5.47
2023-02-08T10:33:32.508Z,5.20
2023-02-08T10:35:59.332Z,5.53
2023-02-08T10:38:46.027Z,5.22
2023-02-08T10:41:20.751Z,5.00
2023-02-08T10:43:55.538Z,4.78
2023-02-08T10:46:51.487Z,4.80
2023-02-08T10:49:38.315Z,5.13
2023-02-08T10:52:06.025Z,4.93
2023-02-08T10:54:34.859Z,5.00
2023-02-08T10:57:05.392Z,4.50
2023-02-08T10:59:51.068Z,4.77
2023-02-08T11:02:31.660Z,4.67
2023-02-08T11:04:58.991Z,4.63
2023-02-08T11:07:25.793Z,4.57
2023-02-08T11:09:53.248Z,4.53
2023-02-08T11:12:22.894Z,5.13
2023-02-08T11:14:52.136Z,4.70
2023-02-08T11:17:31.774Z,4.90
2023-02-08T11:19:59.304Z,4.85
2023-02-08T11:22:31.002Z,5.00
2023-02-08T11:25:05.726Z,5.18
2023-02-08T11:27:33.834Z,4.95
2023-02-08T11:30:09.589Z,4.82
2023-02-08T11:32:36.788Z,4.90
2023-02-08T11:35:21.755Z,4.57
2023-02-08T11:37:49.546Z,4.70
2023-02-08T11:40:24.713Z,4.32
2023-02-08T11:42:52.599Z,5.30
2023-02-08T11:45:23.492Z,5.20
2023-02-08T11:47:51.368Z,4.63
2023-02-08T11:50:27.011Z,4.68
2023-02-08T11:53:00.457Z,4.80
2023-02-08T11:55:29.877Z,4.90
2023-02-08T11:58:05.652Z,4.57
2023-02-08T12:00:36.498Z,5.00
2023-02-08T12:03:23.661Z,4.15
2023-02-08T12:06:27.499Z,4.32
2023-02-08T12:09:12.542Z,4.30
2023-02-08T12:11:43.312Z,3.80
2023-02-08T12:14:24.977Z,4.32
2023-02-08T12:16:51.585Z,4.32
2023-02-08T12:19:42.731Z,3.88
2023-02-08T12:22:18.914Z,4.43
2023-02-08T12:24:51.891Z,4.30
2023-02-08T12:27:58.837Z,4.25
2023-02-08T12:30:29.615Z,4.63
2023-02-08T12:33:18.192Z,4.38
2023-02-08T12:36:03.718Z,4.13
2023-02-08T12:39:27.332Z,3.93
2023-02-08T12:42:15.321Z,4.00
2023-02-08T12:44:51.228Z,3.60
2023-02-08T12:47:17.854Z,3.37
2023-02-08T12:50:24.500Z,3.80
2023-02-08T12:52:57.245Z,3.50
2023-02-08T12:55:38.048Z,3.57
2023-02-08T12:58:30.927Z,3.90
2023-02-08T13:01:21.159Z,3.07
2023-02-08T13:04:08.443Z,2.90
2023-02-08T13:06:40.804Z,3.00
2023-02-08T13:09:58.399Z,3.00
2023-02-08T13:12:35.421Z,3.10
2023-02-08T13:15:29.690Z,2.77
2023-02-08T13:17:59.976Z,2.80
2023-02-08T13:20:45.033Z,3.20
2023-02-08T13:23:20.868Z,2.73
2023-02-08T13:25:50.933Z,3.00
2023-02-08T13:28:21.707Z,3.30
2023-02-08T13:31:14.843Z,2.80
2023-02-08T13:34:00.340Z,2.40
2023-02-08T13:36:35.871Z,2.63
2023-02-08T13:39:09.538Z,2.90
2023-02-08T13:41:37.398Z,2.93
2023-02-08T13:44:07.537Z,2.70
2023-02-08T13:46:45.353Z,2.40
2023-02-08T13:49:41.784Z,3.07
2023-02-08T13:52:10.225Z,2.67
2023-02-08T13:54:37.093Z,2.83
2023-02-08T13:57:25.894Z,2.50
2023-02-08T14:00:33.734Z,2.40
2023-02-08T14:03:20.024Z,2.87
2023-02-08T14:06:07.857Z,3.40
2023-02-08T14:08:44.015Z,2.63
2023-02-08T14:11:41.037Z,2.93
2023-02-08T14:14:19.521Z,2.90
2023-02-08T14:17:07.334Z,3.10
2023-02-08T14:19:40.133Z,3.00
2023-02-08T14:22:12.913Z,2.83
2023-02-08T14:24:48.147Z,3.10
2023-02-08T14:27:38.672Z,3.13
2023-02-08T14:30:17.565Z,2.97
2023-02-08T14:33:04.061Z,3.10
2023-02-08T14:35:34.154Z,3.10
2023-02-08T14:38:50.833Z,3.33
2023-02-08T14:41:42.368Z,3.07
2023-02-08T14:44:43.368Z,2.87
2023-02-08T14:47:25.240Z,3.00
2023-02-08T14:50:01.781Z,3.37
2023-02-08T14:52:30.229Z,3.40
2023-02-08T14:55:08.159Z,3.27
2023-02-08T14:57:36.640Z,3.50
2023-02-08T15:00:16.576Z,3.20
2023-02-08T15:02:48.283Z,3.03
2023-02-08T15:05:26.618Z,3.80
2023-02-08T15:07:57.001Z,3.73
2023-02-08T15:10:25.936Z,3.63
2023-02-08T15:12:56.356Z,3.60
2023-02-08T15:15:29.586Z,3.20
2023-02-08T15:17:57.289Z,3.10
2023-02-08T15:20:27.567Z,3.40
2023-02-08T15:23:17.982Z,3.03
2023-02-08T15:25:55.081Z,3.50
2023-02-08T15:28:23.860Z,3.80
2023-02-08T15:31:00.652Z,3.63
2023-02-08T15:33:27.883Z,3.80
2023-02-08T15:36:14.223Z,4.07
2023-02-08T15:38:44.804Z,3.80
2023-02-08T15:41:23.808Z,3.80
2023-02-08T15:43:50.518Z,3.47
2023-02-08T15:46:23.705Z,3.87
2023-02-08T15:48:51.316Z,3.87
2023-02-08T15:51:22.886Z,3.90
2023-02-08T15:53:53.749Z,4.10
2023-02-08T15:56:37.984Z,4.43
2023-02-08T15:59:16.072Z,4.13
2023-02-08T16:01:47.286Z,4.50
2023-02-08T16:04:13.985Z,4.00
2023-02-08T16:06:53.283Z,4.13
2023-02-08T16:09:27.373Z,4.50
2023-02-08T16:11:58.396Z,4.10
2023-02-08T16:14:29.392Z,6.67
2023-02-08T16:16:58.366Z,5.30
2023-02-08T16:19:28.172Z,5.90
2023-02-08T16:22:14.584Z,8.50
2023-02-08T16:24:41.381Z,6.80
2023-02-08T16:27:26.625Z,7.83
2023-02-08T16:29:54.087Z,17.90
2023-02-08T16:32:31.584Z,7.50
2023-02-08T16:34:58.485Z,8.17
2023-02-08T16:37:33.346Z,6.87
2023-02-08T16:40:02.638Z,5.47
2023-02-08T16:42:31.430Z,5.30
2023-02-08T16:45:18.355Z,6.63
2023-02-08T16:47:49.865Z,5.40
2023-02-08T16:50:19.760Z,4.80
2023-02-08T16:52:49.892Z,4.93
2023-02-08T16:55:19.674Z,4.90
2023-02-08T16:57:50.240Z,5.47
2023-02-08T17:00:24.392Z,6.37
2023-02-08T17:02:51.657Z,5.63
2023-02-08T17:05:19.319Z,4.70
2023-02-08T17:07:46.145Z,5.27
2023-02-08T17:10:30.519Z,5.17
2023-02-08T17:13:13.452Z,5.10
2023-02-08T17:15:46.925Z,6.10
2023-02-08T17:18:14.345Z,5.47
2023-02-08T17:20:41.267Z,4.80
2023-02-08T17:23:07.976Z,5.43
2023-02-08T17:25:35.485Z,4.87
2023-02-08T17:28:06.188Z,5.03
2023-02-08T17:30:38.840Z,4.43
2023-02-08T17:33:11.391Z,5.10
2023-02-08T17:35:38.335Z,5.03
2023-02-08T17:38:05.795Z,4.90
2023-02-08T17:40:35.766Z,7.90
2023-02-08T17:43:03.600Z,25.30
2023-02-08T17:45:30.952Z,15.67
2023-02-08T17:48:00.208Z,7.33
2023-02-08T17:50:27.215Z,17.27
2023-02-08T17:52:54.111Z,14.87
2023-02-08T17:55:21.250Z,6.80
2023-02-08T17:57:48.341Z,9.30
2023-02-08T18:00:21.147Z,17.87
2023-02-08T18:02:50.955Z,9.77
2023-02-08T18:05:22.885Z,10.10
2023-02-08T18:07:51.066Z,8.13
2023-02-08T18:10:18.097Z,8.83
2023-02-08T18:12:45.322Z,6.47
2023-02-08T18:15:15.524Z,6.77
2023-02-08T18:17:43.356Z,6.43
2023-02-08T18:20:14.112Z,5.97
2023-02-08T18:22:42.450Z,6.50
2023-02-08T18:25:10.584Z,7.13
2023-02-08T18:27:37.307Z,9.53
2023-02-08T18:30:04.224Z,7.00
2023-02-08T18:32:31.119Z,10.27
2023-02-08T18:34:58.675Z,8.17
2023-02-08T18:37:25.375Z,10.30
2023-02-08T18:39:52.275Z,11.77
2023-02-08T18:42:18.977Z,7.37
2023-02-08T18:44:45.727Z,10.37
2023-02-08T18:47:12.636Z,8.43
2023-02-08T18:49:42.101Z,7.97
2023-02-08T18:52:13.369Z,8.90
2023-02-08T18:54:40.231Z,8.27
2023-02-08T18:57:10.573Z,9.23
2023-02-08T18:59:38.412Z,10.40
2023-02-08T19:02:07.179Z,12.10
2023-02-08T19:04:40.176Z,8.20
2023-02-08T19:07:07.131Z,8.20
2023-02-08T19:09:38.559Z,6.87
2023-02-08T19:12:05.642Z,6.67
2023-02-08T19:14:32.305Z,6.60
2023-02-08T19:16:59.465Z,6.83
2023-02-08T19:19:26.606Z,6.70
2023-02-08T19:21:53.416Z,6.87
2023-02-08T19:24:20.078Z,7.30
2023-02-08T19:26:47.086Z,6.47
2023-02-08T19:29:16.573Z,6.70
2023-02-08T19:31:44.685Z,6.53
2023-02-08T19:34:12.331Z,7.13
2023-02-08T19:36:51.731Z,6.97
2023-02-08T19:39:26.725Z,7.13
2023-02-08T19:41:54.098Z,6.80
2023-02-08T19:44:21.351Z,6.07
2023-02-08T19:46:55.550Z,6.23
2023-02-08T19:49:25.378Z,6.83
2023-02-08T19:51:52.286Z,6.10
2023-02-08T19:54:20.164Z,7.00
2023-02-08T19:56:50.120Z,6.47
2023-02-08T19:59:19.885Z,6.47
2023-02-08T20:01:46.940Z,6.13
2023-02-08T20:04:14.177Z,6.30
2023-02-08T20:06:41.791Z,6.63
2023-02-08T20:09:08.566Z,6.43
2023-02-08T20:11:45.036Z,6.33
2023-02-08T20:14:17.970Z,5.83
2023-02-08T20:16:44.624Z,6.30
2023-02-08T20:19:12.356Z,6.57
2023-02-08T20:21:40.312Z,6.40
2023-02-08T20:24:09.686Z,6.13
2023-02-08T20:26:40.386Z,6.27
2023-02-08T20:29:08.147Z,6.93
2023-02-08T20:31:37.092Z,6.10
2023-02-08T20:34:07.650Z,6.70
2023-02-08T20:36:44.135Z,6.47
2023-02-08T20:39:14.192Z,6.53
2023-02-08T20:41:44.275Z,7.00
2023-02-08T20:44:12.732Z,7.37
2023-02-08T20:46:39.406Z,7.20
2023-02-08T20:49:07.306Z,7.07
2023-02-08T20:51:35.180Z,8.47
2023-02-08T20:54:03.338Z,10.10
2023-02-08T20:56:33.651Z,10.23
2023-02-08T20:59:13.671Z,10.20
2023-02-08T21:01:40.434Z,10.33
2023-02-08T21:04:07.121Z,9.93
2023-02-08T21:06:35.929Z,11.10
2023-02-08T21:09:06.580Z,10.93
2023-02-08T21:11:33.926Z,11.00
2023-02-08T21:14:01.287Z,11.50
2023-02-08T21:16:28.640Z,11.20
2023-02-08T21:18:57.099Z,12.80
2023-02-08T21:21:24.521Z,11.77
2023-02-08T21:23:51.193Z,10.97
2023-02-08T21:26:20.861Z,11.43
2023-02-08T21:28:47.894Z,11.83
2023-02-08T21:31:17.771Z,11.30
2023-02-08T21:33:45.463Z,10.43
2023-02-08T21:36:16.088Z,11.10
2023-02-08T21:38:43.768Z,10.93
2023-02-08T21:41:16.263Z,11.13
2023-02-08T21:43:43.022Z,10.70
2023-02-08T21:46:10.217Z,10.73
2023-02-08T21:48:56.034Z,9.13
2023-02-08T21:51:42.762Z,9.80
2023-02-08T21:54:34.098Z,9.63
2023-02-08T21:57:03.133Z,11.20
2023-02-08T21:59:35.105Z,10.63
2023-02-08T22:02:01.900Z,9.57
2023-02-08T22:04:28.622Z,10.10
2023-02-08T22:06:55.362Z,10.30
2023-02-08T22:09:22.012Z,10.07
2023-02-08T22:11:49.074Z,10.67
2023-02-08T22:14:16.249Z,10.57
2023-02-08T22:16:42.926Z,10.50
2023-02-08T22:19:09.579Z,10.03
2023-02-08T22:21:36.347Z,9.57
2023-02-08T22:24:03.229Z,9.80
2023-02-08T22:26:29.891Z,9.47
2023-02-08T22:28:56.630Z,10.77
2023-02-08T22:31:23.530Z,9.57
2023-02-08T22:33:54.681Z,9.53
2023-02-08T22:36:21.635Z,8.80
2023-02-08T22:38:48.501Z,8.77
2023-02-08T22:41:17.290Z,8.40
2023-02-08T22:43:44.583Z,8.33
2023-02-08T22:46:11.527Z,8.20
2023-02-08T22:48:38.565Z,9.03
2023-02-08T22:51:10.136Z,8.80
2023-02-08T22:53:36.856Z,8.20
2023-02-08T22:56:04.196Z,8.13
2023-02-08T22:58:30.998Z,8.30
2023-02-08T23:00:57.611Z,8.47
2023-02-08T23:03:24.333Z,8.57
2023-02-08T23:05:51.820Z,9.70
2023-02-08T23:08:21.477Z,8.83
2023-02-08T23:10:48.393Z,8.70
2023-02-08T23:13:15.160Z,8.37
2023-02-08T23:15:44.106Z,8.13
2023-02-08T23:18:10.936Z,7.33
2023-02-08T23:20:39.748Z,8.23
2023-02-08T23:23:06.797Z,8.33
2023-02-08T23:25:33.633Z,7.73
2023-02-08T23:28:00.267Z,8.03
2023-02-08T23:30:27.086Z,8.37
2023-02-08T23:32:53.880Z,8.80
2023-02-08T23:35:20.563Z,8.37
2023-02-08T23:37:47.238Z,8.50
2023-02-08T23:40:14.196Z,8.77
2023-02-08T23:42:40.878Z,8.90
2023-02-08T23:45:07.974Z,8.57
2023-02-08T23:47:34.830Z,7.60
2023-02-08T23:50:01.520Z,8.37
2023-02-08T23:52:28.144Z,8.53
2023-02-08T23:54:54.806Z,8.30
2023-02-08T23:57:21.475Z,9.37
2023-02-08T23:59:48.188Z,8.73
